Time;durP1;ratioP1;P1;durP2;ratioP2;P2;SDS_P1;SDS_P2;PMS_P1;PMS_P2;Temp;Humidity;BMP_temperature;BMP_pressure;BME280_temperature;BME280_humidity;BME280_pressure;Samples;Min_cycle;Max_cycle;Signal;HPM_P1;HPM_P2
2023/06/02 00:01:00;;;;;;;3.50;2.30;;;21.00;86.30;;;;;;7392425;19;20538;-74
2023/06/02 00:03:32;;;;;;;4.63;2.63;;;21.00;86.40;;;;;;7389666;19;20603;-74
2023/06/02 00:05:59;;;;;;;5.68;2.40;;;21.00;86.20;;;;;;7390958;19;20149;-74
2023/06/02 00:08:30;;;;;;;3.88;2.55;;;20.90;86.30;;;;;;7392616;19;20501;-75
2023/06/02 00:10:56;;;;;;;3.20;2.53;;;20.90;86.00;;;;;;7393039;19;20138;-75
2023/06/02 00:13:22;;;;;;;3.15;2.20;;;20.80;86.40;;;;;;7390986;19;20587;-75
2023/06/02 00:15:48;;;;;;;4.30;2.38;;;20.80;86.80;;;;;;7390513;19;21380;-74
2023/06/02 00:18:14;;;;;;;3.55;2.60;;;20.80;86.60;;;;;;7389968;19;20141;-74
2023/06/02 00:20:41;;;;;;;3.10;2.38;;;20.80;86.40;;;;;;7389824;19;20135;-75
2023/06/02 00:23:10;;;;;;;3.38;2.35;;;20.70;86.20;;;;;;7388780;19;20198;-74
2023/06/02 00:25:38;;;;;;;4.72;2.28;;;20.60;86.60;;;;;;7393330;19;20134;-75
2023/06/02 00:28:04;;;;;;;3.22;2.63;;;20.60;87.00;;;;;;7390769;19;20149;-73
2023/06/02 00:30:30;;;;;;;5.10;2.17;;;20.70;87.00;;;;;;7388507;19;20142;-74
2023/06/02 00:32:56;;;;;;;3.60;2.20;;;20.50;86.40;;;;;;7390591;19;20135;-75
2023/06/02 00:35:22;;;;;;;4.15;2.40;;;20.60;86.80;;;;;;7389759;19;20444;-74
2023/06/02 00:37:48;;;;;;;4.95;2.42;;;20.60;86.20;;;;;;7388366;19;20130;-74
2023/06/02 00:40:14;;;;;;;3.55;2.55;;;20.60;86.50;;;;;;7389417;19;20146;-74
2023/06/02 00:42:40;;;;;;;2.83;2.20;;;20.60;86.30;;;;;;7388559;19;20921;-75
2023/06/02 00:45:09;;;;;;;3.78;2.40;;;20.60;86.40;;;;;;7389620;19;20228;-74
2023/06/02 00:47:34;;;;;;;2.90;2.28;;;20.20;85.80;;;;;;7389559;19;20158;-75
2023/06/02 00:50:00;;;;;;;3.28;2.90;;;20.10;87.60;;;;;;7389210;19;20147;-76
2023/06/02 00:52:27;;;;;;;2.92;2.38;;;20.20;87.50;;;;;;7390250;19;20138;-74
2023/06/02 00:54:57;;;;;;;3.72;2.65;;;20.30;86.20;;;;;;7390042;19;20233;-74
2023/06/02 00:57:28;;;;;;;3.95;2.30;;;20.30;87.10;;;;;;7389276;19;20138;-75
2023/06/02 00:59:58;;;;;;;3.25;2.58;;;20.30;86.80;;;;;;7387472;19;20592;-74
2023/06/02 01:02:24;;;;;;;3.88;2.53;;;20.20;86.60;;;;;;7389631;19;20137;-74
2023/06/02 01:04:52;;;;;;;3.42;2.45;;;20.40;86.80;;;;;;7388773;19;20145;-75
2023/06/02 01:07:23;;;;;;;3.15;2.40;;;20.40;85.90;;;;;;7391278;19;20134;-75
2023/06/02 01:09:58;;;;;;;4.10;2.70;;;20.20;86.00;;;;;;7389147;19;20142;-74
2023/06/02 01:12:24;;;;;;;4.07;2.75;;;20.10;87.00;;;;;;7388913;19;20134;-75
2023/06/02 01:14:50;;;;;;;5.20;2.70;;;20.30;86.70;;;;;;7390754;19;20202;-74
2023/06/02 01:17:17;;;;;;;2.63;2.08;;;20.10;85.80;;;;;;7387433;19;20147;-75
2023/06/02 01:19:45;;;;;;;4.55;2.80;;;20.30;86.50;;;;;;7390880;19;20134;-75
2023/06/02 01:22:15;;;;;;;4.45;2.90;;;20.30;86.80;;;;;;7387131;19;20895;-75
2023/06/02 01:24:41;;;;;;;4.43;2.53;;;20.20;86.70;;;;;;7389735;19;20500;-74
2023/06/02 01:27:08;;;;;;;4.80;3.00;;;20.20;86.70;;;;;;7390111;19;20134;-75
2023/06/02 01:29:35;;;;;;;4.65;2.80;;;20.20;85.90;;;;;;7387847;19;20169;-75
2023/06/02 01:32:25;;;;;;;4.30;2.70;;;20.10;86.70;;;;;;7388903;19;20137;-74
2023/06/02 01:34:53;;;;;;;3.83;2.90;;;20.00;87.50;;;;;;7387153;19;20641;-74
2023/06/02 01:37:21;;;;;;;3.38;2.60;;;20.10;86.40;;;;;;7385340;19;20199;-74
2023/06/02 01:39:47;;;;;;;4.78;2.80;;;20.10;86.90;;;;;;7386482;19;20496;-75
2023/06/02 01:42:15;;;;;;;4.00;2.80;;;20.00;86.80;;;;;;7385375;19;20186;-74
2023/06/02 01:44:42;;;;;;;5.50;3.13;;;19.60;88.30;;;;;;7387808;19;20165;-75
2023/06/02 01:47:09;;;;;;;4.47;2.95;;;19.70;87.70;;;;;;7386495;19;20206;-75
2023/06/02 01:49:35;;;;;;;5.13;2.85;;;19.70;88.30;;;;;;7389682;19;20616;-74
2023/06/02 01:52:00;;;;;;;4.32;3.20;;;19.60;88.80;;;;;;7386491;19;20210;-75
2023/06/02 01:54:27;;;;;;;4.03;2.58;;;19.70;89.30;;;;;;7388720;19;20154;-76
2023/06/02 01:56:53;;;;;;;5.15;3.20;;;19.70;89.30;;;;;;7384362;19;20150;-74
2023/06/02 01:59:20;;;;;;;4.15;2.85;;;19.60;89.50;;;;;;7387111;19;20142;-74
2023/06/02 02:01:46;;;;;;;3.13;2.30;;;19.50;90.10;;;;;;7383910;19;20135;-75
2023/06/02 02:04:12;;;;;;;3.75;2.83;;;19.60;90.50;;;;;;7387426;19;20160;-75
2023/06/02 02:06:42;;;;;;;4.80;2.63;;;19.60;90.10;;;;;;7389968;19;20597;-75
2023/06/02 02:09:08;;;;;;;4.05;2.90;;;19.60;90.00;;;;;;7380076;19;20134;-76
2023/06/02 02:11:34;;;;;;;4.82;3.30;;;19.60;90.20;;;;;;7388228;19;20466;-75
2023/06/02 02:14:04;;;;;;;4.13;2.83;;;19.50;90.30;;;;;;7385313;19;20134;-75
2023/06/02 02:16:30;;;;;;;6.00;3.45;;;19.60;90.40;;;;;;7386138;19;20428;-73
2023/06/02 02:18:58;;;;;;;4.95;3.30;;;19.40;90.60;;;;;;7386137;19;20502;-76
2023/06/02 02:21:25;;;;;;;4.80;3.13;;;19.30;91.00;;;;;;7387767;19;20130;-75
2023/06/02 02:23:51;;;;;;;4.63;3.08;;;19.30;91.20;;;;;;7388944;19;20494;-75
2023/06/02 02:26:18;;;;;;;3.67;2.63;;;19.30;91.10;;;;;;7386883;19;20174;-75
2023/06/02 02:28:47;;;;;;;4.68;2.80;;;19.20;91.30;;;;;;7387538;19;20138;-73
2023/06/02 02:31:13;;;;;;;3.75;2.83;;;19.10;91.60;;;;;;7388042;19;20157;-75
2023/06/02 02:33:39;;;;;;;5.93;2.65;;;19.10;91.80;;;;;;7387177;19;20168;-74
2023/06/02 02:36:05;;;;;;;4.88;2.90;;;19.00;92.10;;;;;;7387625;19;20664;-75
2023/06/02 02:38:31;;;;;;;7.10;2.70;;;19.00;92.30;;;;;;7387509;19;20155;-74
2023/06/02 02:40:57;;;;;;;4.07;2.90;;;19.00;92.40;;;;;;7385973;19;20130;-74
2023/06/02 02:43:23;;;;;;;3.97;3.00;;;19.00;92.50;;;;;;7386470;19;20641;-75
2023/06/02 02:45:49;;;;;;;6.75;3.10;;;19.00;92.60;;;;;;7387163;19;20142;-74
2023/06/02 02:48:14;;;;;;;6.22;3.17;;;19.00;92.70;;;;;;7387561;19;20134;-75
2023/06/02 02:50:40;;;;;;;7.00;2.95;;;19.00;92.90;;;;;;7385464;19;20154;-75
2023/06/02 02:53:06;;;;;;;4.53;3.25;;;18.90;93.10;;;;;;7386054;19;20167;-75
2023/06/02 02:55:32;;;;;;;5.07;3.00;;;18.90;93.30;;;;;;7388089;19;20145;-75
2023/06/02 02:58:02;;;;;;;4.40;3.10;;;18.80;93.50;;;;;;7383069;19;20618;-75
2023/06/02 03:00:27;;;;;;;4.70;2.97;;;18.70;93.80;;;;;;7386799;19;20160;-74
2023/06/02 03:02:56;;;;;;;6.28;2.88;;;18.80;94.00;;;;;;7385276;19;20134;-75
2023/06/02 03:05:22;;;;;;;4.70;2.97;;;18.80;94.40;;;;;;7386585;19;20562;-74
2023/06/02 03:07:49;;;;;;;5.47;3.38;;;18.60;95.00;;;;;;7387566;19;20149;-75
2023/06/02 03:10:15;;;;;;;6.65;2.80;;;18.50;95.20;;;;;;7387855;19;20139;-74
2023/06/02 03:12:41;;;;;;;4.53;3.33;;;18.40;95.60;;;;;;7386628;19;20538;-74
2023/06/02 03:15:07;;;;;;;5.43;3.30;;;18.30;95.90;;;;;;7386918;19;20233;-75
2023/06/02 03:17:34;;;;;;;3.88;3.13;;;18.30;96.20;;;;;;7383837;19;20139;-75
2023/06/02 03:20:00;;;;;;;4.72;2.83;;;18.40;96.50;;;;;;7385952;19;20151;-75
2023/06/02 03:22:28;;;;;;;3.95;2.75;;;18.30;96.60;;;;;;7387898;19;20165;-75
2023/06/02 03:24:54;;;;;;;5.13;3.15;;;18.30;96.90;;;;;;7388097;19;20143;-74
2023/06/02 03:27:20;;;;;;;4.45;3.03;;;18.20;97.20;;;;;;7384513;19;20621;-74
2023/06/02 03:29:46;;;;;;;5.43;3.38;;;18.10;97.60;;;;;;7385778;19;20218;-74
2023/06/02 03:32:13;;;;;;;4.47;2.97;;;18.20;98.00;;;;;;7383138;19;20187;-74
2023/06/02 03:34:39;;;;;;;4.45;3.45;;;18.20;98.30;;;;;;7386615;19;20180;-75
2023/06/02 03:37:09;;;;;;;5.18;3.65;;;18.20;98.50;;;;;;7384689;19;20138;-75
2023/06/02 03:39:35;;;;;;;4.90;3.40;;;18.10;98.60;;;;;;7382924;19;20150;-75
2023/06/02 03:42:01;;;;;;;7.07;3.50;;;18.10;99.00;;;;;;7384376;19;20150;-74
2023/06/02 03:44:27;;;;;;;4.38;3.95;;;18.10;99.20;;;;;;7385840;19;20159;-75
2023/06/02 03:46:52;;;;;;;4.90;3.58;;;18.10;99.50;;;;;;7387344;19;20146;-74
2023/06/02 03:49:18;;;;;;;4.75;3.30;;;18.00;99.80;;;;;;7384723;19;20154;-74
2023/06/02 03:51:46;;;;;;;3.53;2.90;;;17.90;99.90;;;;;;7386475;19;20138;-75
2023/06/02 03:54:13;;;;;;;4.57;3.10;;;17.90;99.90;;;;;;7382338;19;20157;-75
2023/06/02 03:56:53;;;;;;;5.93;3.83;;;17.80;99.90;;;;;;7386040;19;20492;-75
2023/06/02 03:59:21;;;;;;;7.72;3.60;;;17.80;99.90;;;;;;7385523;19;20599;-75
2023/06/02 04:01:47;;;;;;;6.95;3.72;;;17.70;99.90;;;;;;7384317;19;20150;-74
2023/06/02 04:04:13;;;;;;;5.57;4.07;;;17.60;99.90;;;;;;7391261;19;20622;-75
2023/06/02 04:06:41;;;;;;;5.97;3.50;;;17.70;99.90;;;;;;7391422;19;20138;-75
2023/06/02 04:09:11;;;;;;;6.25;3.80;;;17.70;99.90;;;;;;7393423;19;20143;-74
2023/06/02 04:11:37;;;;;;;5.22;3.28;;;17.50;99.90;;;;;;7391437;19;20139;-76
2023/06/02 04:14:03;;;;;;;5.70;3.55;;;17.50;99.90;;;;;;7390718;19;20165;-75
2023/06/02 04:16:29;;;;;;;5.57;3.78;;;17.60;99.90;;;;;;7390506;19;20246;-74
2023/06/02 04:18:54;;;;;;;4.82;3.47;;;17.50;99.90;;;;;;7392444;19;20250;-74
2023/06/02 04:21:20;;;;;;;4.88;3.97;;;17.40;99.90;;;;;;7390491;19;20157;-76
2023/06/02 04:23:46;;;;;;;5.70;3.45;;;17.30;99.90;;;;;;7392813;19;20142;-75
2023/06/02 04:26:11;;;;;;;6.95;3.67;;;17.40;99.90;;;;;;7392180;19;20142;-74
2023/06/02 04:28:37;;;;;;;6.28;3.85;;;17.40;99.90;;;;;;7391793;19;20139;-74
2023/06/02 04:31:05;;;;;;;10.68;4.22;;;17.50;99.90;;;;;;7390831;19;20591;-75
2023/06/02 04:33:31;;;;;;;6.15;3.95;;;17.50;99.90;;;;;;7389890;19;20594;-73
2023/06/02 04:35:57;;;;;;;5.53;4.38;;;17.40;99.90;;;;;;7391032;19;20146;-75
2023/06/02 04:38:23;;;;;;;7.57;4.57;;;17.40;99.90;;;;;;7389024;19;20131;-75
2023/06/02 04:40:50;;;;;;;7.18;4.35;;;17.40;99.90;;;;;;7390782;19;20154;-74
2023/06/02 04:43:16;;;;;;;7.57;3.80;;;17.40;99.90;;;;;;7389757;19;20465;-75
2023/06/02 04:45:45;;;;;;;8.63;4.22;;;17.40;99.90;;;;;;7393689;19;20157;-75
2023/06/02 04:48:12;;;;;;;8.25;4.15;;;17.40;99.90;;;;;;7390906;19;20178;-75
2023/06/02 04:50:38;;;;;;;6.70;4.53;;;17.40;99.90;;;;;;7392570;19;20153;-75
2023/06/02 04:53:04;;;;;;;5.70;4.05;;;17.40;99.90;;;;;;7391025;19;20138;-75
2023/06/02 04:55:29;;;;;;;7.18;3.90;;;17.40;99.90;;;;;;7390869;19;20615;-74
2023/06/02 04:57:56;;;;;;;6.50;4.38;;;17.30;99.90;;;;;;7387504;19;20131;-75
2023/06/02 05:00:22;;;;;;;6.25;4.35;;;17.30;99.90;;;;;;7390125;19;20904;-76
2023/06/02 05:02:48;;;;;;;8.25;4.47;;;17.10;99.90;;;;;;7388129;19;20176;-75
2023/06/02 05:05:14;;;;;;;7.50;4.28;;;17.10;99.90;;;;;;7389808;19;20759;-76
2023/06/02 05:07:41;;;;;;;7.15;4.20;;;17.20;99.90;;;;;;7388262;19;20143;-77
2023/06/02 05:10:07;;;;;;;7.07;4.22;;;17.30;99.90;;;;;;7388775;19;20142;-75
2023/06/02 05:12:33;;;;;;;6.35;4.35;;;17.10;99.90;;;;;;7389207;19;20143;-75
2023/06/02 05:14:59;;;;;;;6.57;4.00;;;17.10;99.90;;;;;;7385665;19;20287;-75
2023/06/02 05:17:29;;;;;;;6.47;4.18;;;17.20;99.90;;;;;;7386974;19;20139;-74
2023/06/02 05:19:55;;;;;;;7.50;4.80;;;17.30;99.90;;;;;;7389049;19;20159;-75
2023/06/02 05:22:21;;;;;;;6.45;4.65;;;17.40;99.90;;;;;;7389786;19;20168;-75
2023/06/02 05:24:47;;;;;;;7.45;4.25;;;17.40;99.90;;;;;;7389156;19;20182;-74
2023/06/02 05:27:13;;;;;;;7.10;4.18;;;17.60;99.90;;;;;;7387001;19;20502;-74
2023/06/02 05:29:39;;;;;;;5.47;4.05;;;17.60;99.90;;;;;;7391456;19;20158;-74
2023/06/02 05:32:06;;;;;;;7.55;4.20;;;17.60;99.90;;;;;;7390078;19;20134;-74
2023/06/02 05:34:32;;;;;;;5.90;4.35;;;17.50;99.90;;;;;;7390866;19;20141;-75
2023/06/02 05:37:00;;;;;;;4.47;3.70;;;17.40;99.90;;;;;;7386294;19;20927;-75
2023/06/02 05:39:26;;;;;;;6.20;4.63;;;17.40;99.90;;;;;;7381690;19;20241;-73
2023/06/02 05:41:51;;;;;;;9.18;4.45;;;17.30;99.90;;;;;;7385975;19;20634;-73
2023/06/02 05:44:17;;;;;;;6.40;4.35;;;17.20;99.90;;;;;;7387596;19;20150;-74
2023/06/02 05:46:43;;;;;;;9.10;4.55;;;17.30;99.90;;;;;;7385355;19;20150;-73
2023/06/02 05:49:09;;;;;;;5.70;3.85;;;17.40;99.90;;;;;;7387485;19;20141;-72
2023/06/02 05:51:35;;;;;;;5.50;4.18;;;17.40;99.90;;;;;;7386237;19;20144;-73
2023/06/02 05:54:01;;;;;;;8.00;4.35;;;17.60;99.90;;;;;;7381991;19;20767;-73
2023/06/02 05:56:27;;;;;;;4.82;3.70;;;17.50;99.90;;;;;;7383452;19;20194;-72
2023/06/02 05:58:52;;;;;;;7.95;5.03;;;17.40;99.90;;;;;;7387090;19;20134;-72
2023/06/02 06:01:18;;;;;;;6.00;4.53;;;17.40;99.90;;;;;;7384926;19;20146;-73
2023/06/02 06:03:44;;;;;;;5.55;4.03;;;17.70;99.90;;;;;;7386275;19;20146;-74
2023/06/02 06:06:09;;;;;;;5.13;3.83;;;17.80;99.90;;;;;;7386779;19;20127;-74
2023/06/02 06:08:35;;;;;;;5.70;4.50;;;17.80;99.90;;;;;;7389259;19;20146;-73
2023/06/02 06:11:02;;;;;;;6.90;4.60;;;17.80;99.90;;;;;;7392661;19;20139;-74
2023/06/02 06:13:27;;;;;;;5.63;4.50;;;18.00;99.90;;;;;;7390050;19;20476;-72
2023/06/02 06:15:53;;;;;;;4.97;3.55;;;18.30;99.90;;;;;;7393473;19;20135;-74
2023/06/02 06:18:19;;;;;;;6.72;4.68;;;19.50;99.90;;;;;;7392024;19;20138;-72
2023/06/02 06:20:45;;;;;;;8.07;4.53;;;21.10;99.90;;;;;;7393923;19;20130;-72
2023/06/02 06:23:15;;;;;;;6.20;4.32;;;22.50;99.90;;;;;;7393041;19;20138;-73
2023/06/02 06:25:40;;;;;;;4.78;4.28;;;23.70;99.00;;;;;;7400711;19;20130;-74
2023/06/02 06:28:06;;;;;;;5.15;4.40;;;24.50;96.90;;;;;;7403704;19;20201;-73
2023/06/02 06:30:32;;;;;;;5.35;4.30;;;24.90;95.70;;;;;;7401168;19;20143;-72
2023/06/02 06:32:59;;;;;;;7.32;4.38;;;25.10;94.70;;;;;;7400361;19;20139;-73
2023/06/02 06:35:25;;;;;;;5.28;3.72;;;24.80;94.90;;;;;;7401548;19;20126;-73
2023/06/02 06:37:51;;;;;;;7.22;4.15;;;24.70;95.00;;;;;;7398843;19;20119;-73
2023/06/02 06:40:17;;;;;;;6.43;4.32;;;24.50;94.90;;;;;;7399012;19;20828;-73
2023/06/02 06:42:43;;;;;;;6.28;4.10;;;24.30;95.50;;;;;;7397274;19;20182;-73
2023/06/02 06:45:09;;;;;;;5.78;3.88;;;25.30;94.10;;;;;;7390613;19;20146;-73
2023/06/02 06:47:35;;;;;;;6.03;3.90;;;25.40;93.60;;;;;;7388879;19;20154;-74
2023/06/02 06:50:01;;;;;;;5.43;3.80;;;25.50;93.50;;;;;;7388456;19;20159;-74
2023/06/02 06:52:27;;;;;;;5.40;4.65;;;25.50;93.10;;;;;;7383100;19;20248;-75
2023/06/02 06:54:53;;;;;;;5.50;4.13;;;25.80;92.60;;;;;;7386886;19;20573;-74
2023/06/02 06:57:19;;;;;;;5.18;3.65;;;25.90;92.20;;;;;;7383743;19;20134;-73
2023/06/02 06:59:47;;;;;;;6.50;3.88;;;25.60;92.70;;;;;;7384239;19;20143;-74
2023/06/02 07:02:13;;;;;;;6.30;3.78;;;25.50;92.40;;;;;;7382868;19;20168;-73
2023/06/02 07:04:39;;;;;;;4.70;3.92;;;25.10;92.80;;;;;;7383260;19;20138;-73
2023/06/02 07:07:05;;;;;;;5.30;3.92;;;25.20;92.80;;;;;;7385658;19;20167;-73
2023/06/02 07:09:31;;;;;;;5.75;4.38;;;24.80;93.00;;;;;;7386565;19;20149;-74
2023/06/02 07:11:57;;;;;;;5.38;4.13;;;24.60;93.30;;;;;;7385049;19;20595;-74
2023/06/02 07:14:23;;;;;;;6.47;4.70;;;24.20;94.10;;;;;;7385779;19;20156;-76
2023/06/02 07:16:53;;;;;;;5.00;3.92;;;24.10;94.30;;;;;;7385701;19;20156;-74
2023/06/02 07:19:20;;;;;;;7.18;4.53;;;23.60;94.80;;;;;;7386738;19;20170;-73
2023/06/02 07:21:46;;;;;;;6.85;4.38;;;23.70;95.10;;;;;;7387468;19;20135;-75
2023/06/02 07:24:12;;;;;;;7.15;4.28;;;23.60;95.00;;;;;;7385615;19;20148;-75
2023/06/02 07:26:37;;;;;;;6.20;4.10;;;23.30;95.40;;;;;;7383922;19;20166;-76
2023/06/02 07:29:03;;;;;;;7.63;4.53;;;23.40;95.60;;;;;;7387191;19;20130;-75
2023/06/02 07:31:29;;;;;;;4.80;3.67;;;23.30;95.70;;;;;;7386570;19;20139;-74
2023/06/02 07:33:56;;;;;;;5.00;3.88;;;23.20;95.80;;;;;;7382459;19;20274;-75
2023/06/02 07:36:23;;;;;;;6.43;4.35;;;23.30;95.80;;;;;;7386279;19;20135;-75
2023/06/02 07:38:50;;;;;;;5.95;3.72;;;23.10;95.90;;;;;;7393486;19;20135;-75
2023/06/02 07:41:17;;;;;;;6.05;4.10;;;23.40;95.90;;;;;;7393344;19;20143;-76
2023/06/02 07:43:42;;;;;;;5.20;3.67;;;23.50;95.50;;;;;;7391297;19;20417;-75
2023/06/02 07:46:08;;;;;;;6.55;3.67;;;23.60;95.40;;;;;;7390209;19;20171;-74
2023/06/02 07:48:34;;;;;;;4.75;3.78;;;23.30;95.80;;;;;;7392809;19;20238;-76
2023/06/02 07:51:00;;;;;;;5.40;3.85;;;23.10;96.20;;;;;;7393539;19;20130;-76
2023/06/02 07:53:26;;;;;;;4.95;3.97;;;22.90;96.40;;;;;;7391483;19;20138;-76
2023/06/02 07:55:52;;;;;;;4.45;3.70;;;23.00;96.50;;;;;;7392275;19;21445;-75
2023/06/02 07:58:17;;;;;;;7.20;4.03;;;23.40;95.90;;;;;;7389340;19;20151;-75
2023/06/02 08:00:43;;;;;;;4.95;4.10;;;23.30;95.80;;;;;;7389657;19;20160;-76
2023/06/02 08:03:09;;;;;;;6.82;4.10;;;23.20;96.00;;;;;;7391087;19;20135;-76
2023/06/02 08:05:35;;;;;;;4.47;3.65;;;23.10;96.00;;;;;;7390357;19;20541;-75
2023/06/02 08:08:01;;;;;;;5.60;4.25;;;23.20;95.80;;;;;;7392585;19;20123;-75
2023/06/02 08:10:27;;;;;;;4.20;3.80;;;23.20;95.80;;;;;;7394154;19;20147;-76
2023/06/02 08:12:55;;;;;;;7.20;4.43;;;23.20;95.80;;;;;;7391626;19;20642;-75
2023/06/02 08:15:20;;;;;;;4.70;4.03;;;23.10;96.00;;;;;;7390485;19;20171;-76
2023/06/02 08:17:47;;;;;;;6.95;4.35;;;22.90;96.30;;;;;;7385194;19;20168;-75
2023/06/02 08:20:12;;;;;;;5.35;3.83;;;22.90;96.40;;;;;;7389579;19;20134;-75
2023/06/02 08:22:40;;;;;;;5.30;3.92;;;22.70;96.60;;;;;;7388601;19;20631;-75
2023/06/02 08:25:07;;;;;;;6.30;4.15;;;22.70;96.80;;;;;;7392737;19;20169;-75
2023/06/02 08:27:32;;;;;;;5.32;4.47;;;23.10;96.60;;;;;;7391066;19;20157;-75
2023/06/02 08:29:59;;;;;;;5.85;4.03;;;23.30;96.20;;;;;;7393216;19;20466;-75
2023/06/02 08:32:26;;;;;;;5.20;4.00;;;23.30;96.00;;;;;;7390579;19;20149;-75
2023/06/02 08:34:54;;;;;;;6.55;4.35;;;23.30;96.00;;;;;;7392398;19;20225;-75
2023/06/02 08:37:21;;;;;;;5.63;4.05;;;23.10;96.40;;;;;;7391066;19;20164;-75
2023/06/02 08:39:48;;;;;;;6.95;4.38;;;22.90;96.90;;;;;;7390528;19;20582;-75
2023/06/02 08:42:15;;;;;;;6.30;4.00;;;23.20;96.40;;;;;;7388904;19;20181;-75
2023/06/02 08:44:44;;;;;;;6.93;4.28;;;23.20;96.10;;;;;;7390402;19;20445;-76
2023/06/02 08:47:11;;;;;;;6.38;4.28;;;22.80;96.50;;;;;;7391053;19;20381;-76
2023/06/02 08:49:42;;;;;;;6.63;3.97;;;22.60;97.10;;;;;;7387131;19;20172;-76
2023/06/02 08:52:25;;;;;;;6.90;4.20;;;22.70;97.10;;;;;;7390234;19;20150;-76
2023/06/02 08:54:52;;;;;;;5.55;3.78;;;22.60;97.20;;;;;;7393345;19;20139;-76
2023/06/02 08:57:22;;;;;;;4.65;3.90;;;22.40;97.80;;;;;;7390944;19;20139;-78
2023/06/02 08:59:49;;;;;;;4.32;3.55;;;22.60;98.00;;;;;;7391695;19;20126;-77
2023/06/02 09:02:16;;;;;;;6.97;4.07;;;22.60;97.70;;;;;;7389632;19;20152;-76
2023/06/02 09:04:45;;;;;;;7.30;3.95;;;22.50;98.00;;;;;;7393329;19;20142;-76
2023/06/02 09:07:13;;;;;;;9.57;4.40;;;22.50;98.10;;;;;;7391750;19;20487;-78
2023/06/02 09:09:52;;;;;;;10.13;5.88;;;22.30;97.90;;;;;;7390295;19;20182;-77
2023/06/02 09:12:19;;;;;;;6.28;4.43;;;22.00;98.30;;;;;;7389924;19;20609;-77
2023/06/02 09:15:09;;;;;;;6.05;4.15;;;21.90;98.60;;;;;;7390354;19;20146;-76
2023/06/02 09:17:35;;;;;;;6.75;4.60;;;22.20;98.40;;;;;;7389145;19;20146;-76
2023/06/02 09:20:10;;;;;;;6.13;4.18;;;22.10;98.40;;;;;;7389586;19;21772;-76
2023/06/02 09:22:55;;;;;;;5.35;3.72;;;22.10;98.40;;;;;;7390485;19;20153;-75
2023/06/02 09:25:28;;;;;;;6.90;4.38;;;22.00;98.70;;;;;;7390558;19;20161;-76
2023/06/02 09:27:56;;;;;;;4.30;3.60;;;22.10;98.90;;;;;;7390199;19;20138;-75
2023/06/02 09:30:23;;;;;;;5.50;4.28;;;22.10;98.70;;;;;;7388209;19;20477;-76
2023/06/02 09:33:05;;;;;;;5.57;3.95;;;22.00;98.60;;;;;;7389392;19;20143;-76
2023/06/02 09:35:51;;;;;;;4.97;4.00;;;21.90;98.70;;;;;;7390044;19;20535;-76
2023/06/02 09:38:17;;;;;;;5.53;4.18;;;21.80;99.60;;;;;;7384323;19;20146;-75
2023/06/02 09:40:44;;;;;;;5.15;3.90;;;21.70;99.60;;;;;;7389373;19;20148;-76
2023/06/02 09:43:12;;;;;;;6.53;4.72;;;21.70;99.50;;;;;;7388425;19;20154;-76
2023/06/02 09:45:46;;;;;;;5.53;3.90;;;21.70;99.50;;;;;;7392251;19;20149;-75
2023/06/02 09:48:24;;;;;;;4.57;3.80;;;21.70;99.70;;;;;;7390312;19;20157;-76
2023/06/02 09:50:50;;;;;;;6.28;4.15;;;21.70;99.90;;;;;;7392144;19;20198;-75
2023/06/02 09:53:22;;;;;;;5.72;4.45;;;21.70;99.90;;;;;;7389799;19;20163;-76
2023/06/02 09:55:50;;;;;;;7.55;4.35;;;21.90;99.80;;;;;;7391852;19;20145;-75
2023/06/02 09:58:18;;;;;;;6.57;4.82;;;22.00;99.50;;;;;;7388683;19;20143;-76
2023/06/02 10:00:44;;;;;;;6.65;4.68;;;22.00;99.60;;;;;;7390695;19;20135;-76
2023/06/02 10:03:11;;;;;;;5.38;4.60;;;21.90;99.80;;;;;;7389840;19;20575;-75
2023/06/02 10:05:45;;;;;;;7.60;4.32;;;21.90;99.90;;;;;;7388528;19;20164;-75
2023/06/02 10:08:15;;;;;;;5.93;3.83;;;22.00;99.90;;;;;;7389992;19;20148;-74
2023/06/02 10:11:17;;;;;;;5.93;4.45;;;22.00;99.70;;;;;;7390415;19;20126;-76
2023/06/02 10:13:59;;;;;;;8.38;4.93;;;22.00;99.70;;;;;;7387034;19;20147;-76
2023/06/02 10:16:24;;;;;;;5.88;4.25;;;21.80;99.90;;;;;;7388504;19;20159;-75
2023/06/02 10:18:53;;;;;;;4.60;4.00;;;22.00;99.90;;;;;;7389803;19;20135;-76
2023/06/02 10:21:46;;;;;;;7.90;5.30;;;22.20;99.90;;;;;;7387526;19;20148;-75
2023/06/02 10:24:37;;;;;;;6.05;4.03;;;22.20;99.20;;;;;;7388838;19;20153;-76
2023/06/02 10:27:20;;;;;;;5.70;3.83;;;22.20;99.20;;;;;;7389411;19;20126;-75
2023/06/02 10:29:48;;;;;;;4.28;3.67;;;22.10;99.20;;;;;;7390180;19;20143;-75
2023/06/02 10:32:44;;;;;;;7.80;4.05;;;22.20;99.20;;;;;;7386745;19;20146;-75
2023/06/02 10:35:10;;;;;;;6.25;4.53;;;22.10;99.30;;;;;;7386052;19;20135;-75
2023/06/02 10:37:37;;;;;;;4.90;3.65;;;22.10;99.20;;;;;;7385876;19;20597;-75
2023/06/02 10:40:04;;;;;;;4.82;3.92;;;22.10;99.40;;;;;;7386715;19;20138;-76
2023/06/02 10:42:31;;;;;;;4.22;3.80;;;22.20;99.20;;;;;;7385367;19;20151;-76
2023/06/02 10:45:22;;;;;;;3.95;3.33;;;22.40;99.00;;;;;;7388365;19;20602;-76
2023/06/02 10:47:50;;;;;;;5.50;3.97;;;22.50;98.50;;;;;;7388115;19;20622;-76
2023/06/02 10:50:21;;;;;;;5.90;4.10;;;22.50;98.30;;;;;;7385524;19;20143;-76
2023/06/02 10:53:03;;;;;;;6.55;3.83;;;22.60;97.90;;;;;;7387967;19;20142;-76
2023/06/02 10:55:34;;;;;;;4.05;3.65;;;22.50;97.80;;;;;;7386038;19;20150;-76
2023/06/02 10:58:05;;;;;;;7.15;3.92;;;22.50;97.10;;;;;;7386051;19;20135;-77
2023/06/02 11:00:39;;;;;;;4.80;3.60;;;22.60;96.70;;;;;;7386162;19;20142;-76
2023/06/02 11:03:28;;;;;;;5.30;3.97;;;22.70;96.70;;;;;;7387719;19;20614;-76
2023/06/02 11:06:18;;;;;;;5.80;4.35;;;22.60;97.10;;;;;;7386185;19;20486;-74
2023/06/02 11:08:45;;;;;;;6.63;3.38;;;22.60;97.40;;;;;;7387240;19;20134;-74
2023/06/02 11:11:11;;;;;;;6.18;3.70;;;22.70;97.70;;;;;;7388871;19;20134;-76
2023/06/02 11:13:57;;;;;;;4.72;3.50;;;22.80;97.10;;;;;;7390500;19;20146;-78
2023/06/02 11:16:25;;;;;;;3.83;3.20;;;22.90;97.00;;;;;;7393430;19;20130;-75
2023/06/02 11:18:51;;;;;;;3.60;2.95;;;23.00;96.60;;;;;;7393534;19;20201;-78
2023/06/02 11:21:19;;;;;;;5.35;3.65;;;23.10;96.30;;;;;;7391901;19;20144;-76
2023/06/02 11:23:45;;;;;;;3.90;3.22;;;23.30;95.60;;;;;;7395957;19;20138;-77
2023/06/02 11:26:19;;;;;;;5.22;3.10;;;23.30;95.30;;;;;;7394036;19;20255;-77
2023/06/02 11:28:45;;;;;;;4.60;3.22;;;23.20;95.20;;;;;;7393429;19;20150;-78
2023/06/02 11:31:13;;;;;;;4.55;3.13;;;23.10;95.20;;;;;;7393990;19;20142;-77
2023/06/02 11:33:50;;;;;;;5.97;3.20;;;23.20;94.50;;;;;;7391517;19;20178;-76
2023/06/02 11:36:30;;;;;;;3.78;2.97;;;23.20;94.40;;;;;;7393570;19;20646;-76
2023/06/02 11:39:09;;;;;;;4.18;3.47;;;23.20;94.80;;;;;;7394237;19;20161;-77
2023/06/02 11:41:35;;;;;;;5.20;3.45;;;23.20;94.30;;;;;;7392775;19;20149;-76
2023/06/02 11:44:14;;;;;;;4.90;3.20;;;23.30;94.40;;;;;;7393015;19;20130;-77
2023/06/02 11:46:43;;;;;;;4.53;3.42;;;23.60;93.70;;;;;;7393893;19;20126;-76
2023/06/02 11:49:09;;;;;;;6.00;3.33;;;23.70;93.40;;;;;;7393262;19;20210;-78
2023/06/02 11:51:35;;;;;;;5.80;3.05;;;23.80;92.70;;;;;;7393816;19;20138;-75
2023/06/02 11:54:06;;;;;;;4.90;3.72;;;23.90;92.30;;;;;;7392622;19;20570;-76
2023/06/02 11:56:35;;;;;;;6.75;3.20;;;24.00;92.00;;;;;;7393376;19;20139;-77
2023/06/02 11:59:00;;;;;;;4.25;2.83;;;24.10;92.40;;;;;;7391225;19;20154;-77
2023/06/02 12:01:32;;;;;;;4.25;3.22;;;24.10;92.20;;;;;;7392656;19;20182;-78
2023/06/02 12:04:02;;;;;;;3.92;2.83;;;24.00;92.50;;;;;;7391771;19;20147;-77
2023/06/02 12:06:29;;;;;;;4.13;3.45;;;23.90;93.20;;;;;;7391949;19;20139;-77
2023/06/02 12:08:55;;;;;;;4.22;3.60;;;24.10;93.30;;;;;;7394285;19;20130;-76
2023/06/02 12:11:25;;;;;;;4.93;3.75;;;24.10;93.10;;;;;;7391411;19;20141;-77
2023/06/02 12:14:04;;;;;;;3.63;3.33;;;24.10;93.00;;;;;;7394244;19;20138;-77
2023/06/02 12:16:31;;;;;;;4.60;2.90;;;24.20;92.90;;;;;;7390668;19;20162;-75
2023/06/02 12:19:16;;;;;;;5.30;3.63;;;24.20;91.90;;;;;;7394627;19;20130;-76
2023/06/02 12:21:45;;;;;;;3.38;2.60;;;24.30;91.50;;;;;;7391701;19;20161;-76
2023/06/02 12:24:33;;;;;;;3.53;2.95;;;24.30;91.40;;;;;;7392916;19;20138;-75
2023/06/02 12:27:00;;;;;;;3.72;2.80;;;24.30;91.70;;;;;;7395353;19;20141;-76
2023/06/02 12:29:25;;;;;;;4.78;3.13;;;24.20;92.00;;;;;;7392619;19;20493;-75
2023/06/02 12:31:58;;;;;;;4.57;2.90;;;24.30;91.50;;;;;;7394494;19;20138;-76
2023/06/02 12:34:24;;;;;;;3.50;2.83;;;24.20;91.10;;;;;;7392158;19;20146;-76
2023/06/02 12:36:51;;;;;;;3.30;3.00;;;24.20;90.90;;;;;;7389101;19;20131;-76
2023/06/02 12:39:17;;;;;;;5.15;2.60;;;24.30;91.00;;;;;;7391221;19;20154;-75
2023/06/02 12:41:43;;;;;;;2.97;2.67;;;24.30;90.90;;;;;;7390537;19;20130;-75
2023/06/02 12:44:09;;;;;;;3.80;2.60;;;24.20;91.50;;;;;;7394021;19;20138;-76
2023/06/02 12:46:35;;;;;;;2.97;2.50;;;24.10;91.90;;;;;;7392823;19;20131;-76
2023/06/02 12:49:03;;;;;;;4.47;3.10;;;24.20;91.90;;;;;;7393149;19;20156;-76
2023/06/02 12:51:29;;;;;;;2.80;2.53;;;24.30;91.50;;;;;;7395583;19;20141;-76
2023/06/02 12:53:55;;;;;;;3.85;3.10;;;24.40;90.70;;;;;;7394807;19;20130;-76